Data for 09/24/2009

Time Sea-Level Adjusted Pressure Absolute Pressure Temperature Relative Humidity Dew Point   
(mb) (inHg) (mb) (inHg) (C) (F) (%) (C) (F)
00:05 1024 30.24 854 25.22 15.2 59.3 32 -1.3 29.7
00:10 1024 30.24 854 25.22 15.1 59.2 32 -1.4 29.5
00:15 1024 30.24 854 25.22 15.2 59.4 31 -1.8 28.8
00:20 1024 30.24 854 25.22 15.5 59.9 30 -1.9 28.6
00:25 1024 30.24 854 25.22 15.3 59.5 32 -1.4 29.4
00:30 1024 30.24 854 25.22 15.5 59.8 31 -1.5 29.2
00:35 1024 30.24 854 25.22 15.4 59.6 31 -1.4 29.5
00:40 1024 30.24 853 25.19 15.2 59.4 32 -1.1 30
00:45 1024 30.24 853 25.19 15.2 59.3 32 -1.4 29.5
00:50 1024 30.24 853 25.19 15 59.1 32 -1.5 29.4
00:55 1024 30.24 853 25.19 14.9 58.7 33 -1.3 29.7
01:00 1024 30.24 853 25.19 15 58.9 33 -1.2 29.9
01:05 1024 30.24 853 25.19 15.1 59.3 33 -1 30.2
01:10 1024 30.24 853 25.19 15.1 59.1 34 -0.7 30.7
01:15 1024 30.24 853 25.19 15.1 59.3 34 -0.6 30.8
01:20 1024 30.24 853 25.19 15 58.9 33 -0.9 30.4
01:25 1024 30.24 853 25.19 14.6 58.3 34 -0.9 30.4
01:30 1024 30.24 853 25.19 14.4 58 34 -1.1 30
01:35 1024 30.24 853 25.19 14.3 57.8 34 -1.4 29.5
01:40 1024 30.24 853 25.19 14.4 58 33 -1.6 29.1
01:45 1024 30.24 853 25.19 14.5 58.2 33 -1.5 29.3
01:50 1024 30.24 853 25.19 14.9 58.8 33 -1.1 30
01:55 1024 30.24 853 25.19 15.1 59.2 32 -1.4 29.5
02:00 1024 30.24 853 25.19 15.1 59.1 32 -1.3 29.7
02:05 1024 30.24 853 25.19 15 58.9 32 -1.4 29.5
02:10 1024 30.24 853 25.19 14.8 58.6 33 -1.5 29.4
02:15 1024 30.24 853 25.19 14.4 58 33 -1.5 29.2
02:20 1024 30.24 853 25.19 14 57.1 32 -2.3 27.9
02:25 1024 30.24 853 25.19 14.2 57.6 32 -2.4 27.7
02:30 1024 30.24 853 25.19 14.6 58.3 32 -2 28.4
02:35 1024 30.24 853 25.19 14.4 57.9 33 -1.7 28.9
02:40 1024 30.24 853 25.19 14.5 58.2 32 -2.1 28.3
02:45 1024 30.24 853 25.19 14.6 58.3 32 -1.8 28.7
02:50 1024 30.24 853 25.19 14.3 57.7 32 -2.1 28.3
02:55 1024 30.24 853 25.19 14.1 57.4 31 -2.6 27.4
03:00 1024 30.24 853 25.19 14.3 57.7 31 -2.7 27.2
03:05 1024 30.24 853 25.19 14.5 58 31 -2.4 27.6
03:10 1024 30.24 853 25.19 14.4 57.9 32 -2 28.4
03:15 1024 30.24 853 25.19 13.8 56.9 33 -1.9 28.6
03:20 1024 30.24 853 25.19 13.2 55.7 34 -2.1 28.1
03:25 1024 30.24 853 25.19 13 55.4 33 -2.7 27.2
03:30 1024 30.24 853 25.19 13.8 56.8 32 -2.5 27.5
03:35 1024 30.24 853 25.19 14 57.3 32 -2.3 27.9
03:40 1024 30.24 853 25.19 13.9 57 32 -2.4 27.6
03:45 1024 30.24 853 25.19 13.8 56.8 34 -1.9 28.6
03:50 1024 30.24 853 25.19 13.3 56 34 -2.3 27.8
03:55 1024 30.24 853 25.19 13.2 55.7 33 -2.6 27.4
04:00 1024 30.24 853 25.19 13 55.3 37 -1.4 29.4
04:05 1024 30.24 853 25.19 12.5 54.5 36 -2.1 28.1
04:10 1024 30.24 853 25.19 13.3 56 32 -2.9 26.7
04:15 1024 30.24 853 25.19 14.1 57.4 31 -2.7 27.1
04:20 1024 30.24 853 25.19 14.6 58.2 31 -2.4 27.6
04:25 1024 30.24 853 25.19 14.6 58.3 31 -2.1 28.3
04:30 1024 30.24 853 25.19 14.1 57.3 32 -2.5 27.6
04:35 1024 30.24 853 25.19 13.9 56.9 33 -2 28.4
04:40 1024 30.24 853 25.19 13.4 56.1 35 -1.6 29.1
04:45 1024 30.24 853 25.19 13 55.5 36 -1.5 29.2
04:50 1024 30.24 853 25.19 12.6 54.7 38 -1.3 29.7
04:55 1024 30.24 853 25.19 12.4 54.2 37 -1.9 28.5
05:00 1024 30.24 853 25.19 12.6 54.6 36 -2 28.5
05:05 1024 30.24 853 25.19 12.4 54.4 38 -1.5 29.2
05:10 1024 30.24 853 25.19 12.3 54.1 38 -1.6 29.2
05:15 1024 30.24 853 25.19 12.1 53.8 38 -1.7 28.9
05:20 1024 30.24 853 25.19 12.3 54.2 37 -1.9 28.5
05:25 1024 30.24 853 25.19 12.6 54.7 37 -1.6 29.2
05:30 1024 30.24 853 25.19 12.5 54.6 38 -1.3 29.7
05:35 1024 30.24 853 25.19 12.4 54.3 38 -1.5 29.3
05:40 1024 30.24 853 25.19 12.3 54.1 38 -1.6 29.1
05:45 1024 30.24 853 25.19 12.4 54.2 36 -2.1 28.3
05:50 1024 30.24 853 25.19 12.5 54.4 40 -0.7 30.7
05:55 1024 30.24 853 25.19 11.9 53.4 41 -1.1 30.1
06:00 1024 30.24 853 25.19 12.2 53.9 37 -1.9 28.5
06:05 1023 30.21 853 25.19 12.8 55.1 35 -2.1 28.2
06:10 1023 30.21 853 25.19 12.8 55 39 -0.8 30.5
06:15 1023 30.21 853 25.19 12.4 54.3 38 -1.7 29
06:20 1023 30.21 853 25.19 12.3 54.1 39 -1.1 30.1
06:25 1023 30.21 853 25.19 12 53.7 39 -1.3 29.7
06:30 1023 30.21 853 25.19 12.2 54 39 -1.3 29.7
06:35 1023 30.21 853 25.19 12.2 54 40 -1 30.2
06:40 1023 30.21 853 25.19 12.1 53.7 40 -1 30.2
06:45 1023 30.21 853 25.19 11.5 52.8 42 -1 30.2
06:50 1023 30.21 853 25.19 11.1 51.9 44 -0.8 30.6
06:55 1023 30.21 853 25.19 10.9 51.6 44 -0.9 30.4
07:00 1023 30.21 853 25.19 11.7 53 40 -1.6 29.1
07:05 1023 30.21 853 25.19 12.2 53.9 39 -1.2 29.8
07:10 1024 30.24 853 25.19 12.3 54.1 39 -1.1 30
07:15 1024 30.24 853 25.19 12.2 54 39 -1.3 29.6
07:20 1024 30.24 853 25.19 12.1 53.9 39 -1.3 29.6
07:25 1024 30.24 853 25.19 12.1 53.7 40 -1 30.3
07:30 1024 30.24 853 25.19 11.6 52.9 41 -1 30.2
07:35 1024 30.24 853 25.19 11.5 52.8 40 -1.5 29.3
07:40 1024 30.24 853 25.19 12.3 54.1 38 -1.6 29.1
07:45 1024 30.24 853 25.19 12.7 54.8 37 -1.6 29.1
07:50 1024 30.24 853 25.19 13 55.3 36 -1.7 29
07:55 1024 30.24 853 25.19 13.2 55.7 37 -1.3 29.7
08:00 1024 30.24 853 25.19 12.9 55.3 40 -0.4 31.3
08:05 1024 30.24 853 25.19 12.2 53.9 41 -0.6 30.8
08:10 1024 30.24 853 25.19 12 53.6 40 -1 30.2
08:15 1024 30.24 853 25.19 12.5 54.4 38 -1.3 29.7
08:20 1024 30.24 853 25.19 13.2 55.7 38 -0.6 30.9
08:25 1024 30.24 853 25.19 13.4 56.1 36 -1.3 29.6
08:30 1024 30.24 853 25.19 13.4 56.1 40 0 32.1
08:35 1024 30.24 853 25.19 13.5 56.2 38 -0.4 31.4
08:40 1024 30.24 853 25.19 13.7 56.6 38 -0.4 31.3
08:45 1024 30.24 853 25.19 13.9 57 39 0.2 32.4
08:50 1024 30.24 853 25.19 13.9 57 39 0.1 32.2
08:55 1024 30.24 853 25.19 14.1 57.3 39 0.3 32.6
09:00 1024 30.24 853 25.19 14.5 58.1 36 -0.5 31.2
09:05 1024 30.24 853 25.19 15.2 59.3 31 -1.7 29
09:10 1024 30.24 853 25.19 15.7 60.2 34 -0.2 31.6
09:15 1024 30.24 853 25.19 16.2 61.1 32 -0.3 31.5
09:20 1024 30.24 853 25.19 16.6 61.9 31 -0.4 31.4
09:25 1024 30.24 853 25.19 17.1 62.8 31 -0 31.9
09:30 1024 30.24 853 25.19 17.4 63.4 30 -0.4 31.3
09:35 1024 30.24 853 25.19 17.5 63.5 30 -0.3 31.4
09:40 1024 30.24 853 25.19 17.8 64.1 28 -0.8 30.6
09:45 1024 30.24 853 25.19 17.8 64.1 30 -0 32
09:50 1024 30.24 853 25.19 18.2 64.8 30 0.3 32.5
09:55 1024 30.24 853 25.19 19 66.3 28 0.5 32.9
10:00 1024 30.24 853 25.19 19.5 67.1 27 0.3 32.5
10:05 1024 30.24 853 25.19 20.2 68.3 27 0.7 33.3
10:10 1024 30.24 853 25.19 20.2 68.4 27 1 33.9
10:15 1024 30.24 853 25.19 20.1 68.2 26 0.4 32.7
10:20 1024 30.24 853 25.19 20.6 69 26 0.4 32.7
10:25 1023 30.21 853 25.19 20.9 69.6 26 0.9 33.5
10:30 1023 30.21 853 25.19 21.3 70.4 26 1.2 34.2
10:35 1023 30.21 853 25.19 20.6 69 28 1.5 34.7
10:40 1023 30.21 853 25.19 20.6 69.1 27 1.2 34.2
10:45 1023 30.21 853 25.19 20 68 26 0.3 32.6
10:50 1023 30.21 853 25.19 19.8 67.7 28 0.8 33.5
10:55 1023 30.21 853 25.19 21 69.7 26 1.1 34
11:00 1023 30.21 853 25.19 21.6 71 25 0.9 33.7
11:05 1023 30.21 852 25.16 21.7 71 25 0.9 33.6
11:10 1023 30.21 852 25.16 21.6 70.9 26 1.4 34.5
11:15 1023 30.21 852 25.16 21.8 71.2 26 1.6 34.8
11:20 1023 30.21 852 25.16 21.2 70.2 26 1.1 34
11:25 1023 30.21 852 25.16 21.5 70.7 27 1.7 35.1
11:30 1023 30.21 852 25.16 21.2 70.2 26 1 33.8
11:35 1023 30.21 852 25.16 21.7 71 27 1.9 35.3
11:40 1023 30.21 852 25.16 21.9 71.4 25 1.2 34.1
11:45 1023 30.21 852 25.16 22.3 72.1 25 1.8 35.2
11:50 1023 30.21 852 25.16 22.8 73 24 1.4 34.6
11:55 1023 30.21 852 25.16 22.7 72.8 26 2.3 36.1
12:00 1023 30.21 852 25.16 22.8 73 25 1.7 35.1
12:05 1023 30.21 852 25.16 23.3 73.9 25 2.2 35.9
12:10 1023 30.21 852 25.16 23.4 74.1 25 2.3 36.1
12:15 1023 30.21 852 25.16 23.9 75 23 1.7 35.1
12:20 1023 30.21 852 25.16 24.1 75.4 23 1.9 35.4
12:25 1023 30.21 852 25.16 24.1 75.4 22 1.2 34.2
12:30 1022 30.18 852 25.16 24.5 76.1 19 -0.1 31.8
12:35 1022 30.18 852 25.16 23.1 73.6 22 0.4 32.6
12:40 1022 30.18 852 25.16 23.5 74.4 22 1 33.8
12:45 1022 30.18 852 25.16 24.4 75.9 20 0.2 32.3
12:50 1022 30.18 852 25.16 24.5 76.1 21 0.9 33.7
12:55 1022 30.18 851 25.13 24.7 76.5 21 1.3 34.4
13:00 1022 30.18 851 25.13 25.1 77.1 20 1 33.7
13:05 1022 30.18 851 25.13 25.2 77.4 21 1.6 34.9
13:10 1022 30.18 851 25.13 25.8 78.4 19 1 33.7
13:15 1022 30.18 851 25.13 26.3 79.3 18 0.3 32.6
13:20 1022 30.18 851 25.13 26.2 79.1 19 1 33.9
13:25 1022 30.18 851 25.13 26.3 79.3 19 1 33.8
13:30 1022 30.18 851 25.13 26.4 79.6 19 1.6 34.8
13:35 1022 30.18 851 25.13 26.6 79.8 18 0.6 33.1
13:40 1022 30.18 851 25.13 26.9 80.4 19 1.4 34.6
13:45 1022 30.18 851 25.13 27 80.6 18 1.2 34.1
13:50 1022 30.18 851 25.13 27.3 81.1 18 1 33.9
13:55 1022 30.18 851 25.13 27.1 80.7 19 1.9 35.4
14:00 1022 30.18 851 25.13 27.1 80.7 18 1.1 34
14:05 1022 30.18 851 25.13 27.9 82.3 17 0.9 33.6
14:10 1022 30.18 851 25.13 27.7 81.9 18 1.5 34.6
14:15 1022 30.18 851 25.13 27.7 81.8 17 1 33.7
14:20 1021 30.15 851 25.13 28.1 82.6 16 -0.1 31.8
14:25 1021 30.15 851 25.13 28.2 82.8 15 -0.7 30.8
14:30 1021 30.15 851 25.13 28 82.4 15 -1.2 29.9
14:35 1021 30.15 851 25.13 28.2 82.7 14 -1.1 30
14:40 1021 30.15 850 25.1 28.6 83.4 14 -0.9 30.4
14:45 1021 30.15 850 25.1 28.7 83.6 15 -0.5 31.2
14:50 1021 30.15 850 25.1 28.7 83.7 14 -1.1 30.1
14:55 1021 30.15 850 25.1 28.7 83.6 15 -0.3 31.4
15:00 1021 30.15 850 25.1 29 84.1 15 -0.4 31.3
15:05 1021 30.15 850 25.1 29 84.2 14 -0.5 31.2
15:10 1021 30.15 850 25.1 29 84.3 15 -0.3 31.4
15:15 1021 30.15 850 25.1 28.9 84 14 -0.8 30.5
15:20 1021 30.15 850 25.1 29 84.2 14 -0.9 30.5
15:25 1021 30.15 850 25.1 28.4 83 15 -0.5 31.1
15:30 1021 30.15 850 25.1 29 84.1 14 -0.5 31.1
15:35 1021 30.15 850 25.1 29.3 84.7 15 -0.2 31.7
15:40 1021 30.15 850 25.1 29.2 84.6 14 -0.5 31.1
15:45 1020 30.12 850 25.1 29.1 84.3 15 -0.2 31.6
15:50 1020 30.12 850 25.1 29.1 84.3 15 0 32
15:55 1020 30.12 850 25.1 29.5 85.1 14 -0.6 30.9
16:00 1020 30.12 850 25.1 29.7 85.5 14 0 32.1
16:05 1020 30.12 850 25.1 29.6 85.2 14 -0.6 31
16:10 1020 30.12 849 25.07 29.3 84.7 15 0.2 32.4
16:15 1020 30.12 849 25.07 29.5 85 14 -0.8 30.5
16:20 1020 30.12 849 25.07 29.5 85.2 14 -0.4 31.4
16:25 1020 30.12 849 25.07 29.6 85.2 14 -0.9 30.4
16:30 1020 30.12 849 25.07 29.4 84.9 14 -0.1 31.8
16:35 1020 30.12 849 25.07 28.9 84 15 -0.2 31.7
16:40 1020 30.12 849 25.07 29.4 84.8 14 -0.4 31.4
16:45 1020 30.12 849 25.07 29.5 85 14 -0.7 30.7
16:50 1020 30.12 849 25.07 29.4 85 14 -0.5 31.2
16:55 1020 30.12 849 25.07 29.7 85.5 14 -0.6 31
17:00 1020 30.12 849 25.07 29.8 85.6 14 0.1 32.1
17:05 1020 30.12 849 25.07 29.8 85.6 13 -1.4 29.5
17:10 1020 30.12 849 25.07 29.6 85.3 15 0.4 32.7
17:15 1020 30.12 849 25.07 29.6 85.2 13 -1.2 29.9
17:20 1020 30.12 849 25.07 29.4 85 14 -0.6 30.9
17:25 1020 30.12 849 25.07 29.5 85.1 14 -0.3 31.4
17:30 1020 30.12 849 25.07 29.3 84.7 13 -1.6 29.2
17:35 1020 30.12 849 25.07 29.3 84.7 13 -1.5 29.3
17:40 1020 30.12 849 25.07 29.3 84.8 14 -0.8 30.6
17:45 1019 30.09 849 25.07 29.4 84.9 13 -1.9 28.6
17:50 1019 30.09 849 25.07 29.3 84.7 13 -1.7 29
17:55 1019 30.09 849 25.07 29.2 84.5 12 -2.3 27.9
18:00 1019 30.09 849 25.07 29.3 84.7 12 -2.5 27.5
18:05 1019 30.09 849 25.07 29 84.3 13 -1.6 29.1
18:10 1019 30.09 849 25.07 28.9 84 14 -1.3 29.6
18:15 1019 30.09 849 25.07 28.9 84 13 -1.5 29.3
18:20 1019 30.09 849 25.07 28.4 83.1 14 -1 30.2
18:25 1019 30.09 849 25.07 28 82.5 15 -1 30.2
18:30 1019 30.09 849 25.07 27.7 81.9 16 -0.4 31.3
18:35 1019 30.09 849 25.07 27.2 81 17 0.5 33
18:40 1019 30.09 848 25.04 26.9 80.3 18 1 33.7
18:45 1019 30.09 848 25.04 26.6 79.8 18 0.9 33.6
18:50 1019 30.09 848 25.04 26.2 79.1 19 1.2 34.1
18:55 1019 30.09 848 25.04 25.8 78.5 19 0.8 33.4
19:00 1019 30.09 848 25.04 25.7 78.2 20 1.1 33.9
19:05 1019 30.09 849 25.07 25.1 77.2 26 4.6 40.3
19:10 1019 30.09 849 25.07 23.9 75 28 4.7 40.5
19:15 1019 30.09 849 25.07 23 73.4 27 3.4 38.1
19:20 1019 30.09 849 25.07 22.5 72.5 25 1.7 35
19:25 1019 30.09 849 25.07 22.2 71.9 25 1.7 35
19:30 1019 30.09 849 25.07 21.7 71.1 30 3.4 38.1
19:35 1019 30.09 849 25.07 21.5 70.7 26 1.5 34.7
19:40 1019 30.09 849 25.07 21.3 70.3 25 0.6 33
19:45 1019 30.09 849 25.07 20.8 69.4 27 1.2 34.2
19:50 1019 30.09 849 25.07 20 68.1 30 2.2 35.9
19:55 1019 30.09 849 25.07 19.5 67.1 30 1.7 35
20:00 1019 30.09 849 25.07 18.8 65.8 31 1.5 34.8
20:05 1020 30.12 849 25.07 18.3 65 32 1.7 35
20:10 1020 30.12 849 25.07 18.2 64.8 30 0.3 32.5
20:15 1020 30.12 849 25.07 18.7 65.6 27 -0.7 30.7
20:20 1020 30.12 849 25.07 19.2 66.6 26 -0.8 30.5
20:25 1020 30.12 849 25.07 19.7 67.5 27 0.3 32.5
20:30 1020 30.12 849 25.07 19.7 67.5 26 -0.3 31.4
20:35 1020 30.12 849 25.07 20.1 68.1 21 -2.5 27.5
20:40 1020 30.12 849 25.07 20.1 68.1 22 -2.4 27.8
20:45 1020 30.12 849 25.07 20.1 68.1 23 -1.4 29.5
20:50 1020 30.12 849 25.07 19.6 67.3 23 -1.8 28.8
20:55 1020 30.12 849 25.07 19 66.3 25 -1.3 29.6
21:00 1020 30.12 849 25.07 18.6 65.5 23 -2.6 27.2
21:05 1020 30.12 849 25.07 18.7 65.7 24 -1.9 28.5
21:10 1020 30.12 849 25.07 18.3 65 26 -1.5 29.3
21:15 1020 30.12 849 25.07 18.2 64.8 26 -1.5 29.4
21:20 1020 30.12 849 25.07 18.3 64.9 27 -0.7 30.7
21:25 1020 30.12 849 25.07 18.4 65.2 27 -1 30.2
21:30 1020 30.12 849 25.07 18 64.4 26 -1.9 28.6
21:35 1020 30.12 849 25.07 18.3 64.9 26 -1.2 29.9
21:40 1020 30.12 849 25.07 18 64.4 26 -1.4 29.4
21:45 1020 30.12 849 25.07 18.1 64.5 26 -1.4 29.5
21:50 1020 30.12 849 25.07 17.9 64.1 28 -0.9 30.3
21:55 1020 30.12 849 25.07 17.4 63.4 28 -1 30.2
22:00 1020 30.12 849 25.07 17.1 62.8 30 -0.6 30.9
22:05 1020 30.12 849 25.07 16.8 62.3 30 -0.8 30.5
22:10 1020 30.12 849 25.07 17 62.6 26 -2.8 27
22:15 1020 30.12 849 25.07 17.5 63.4 28 -1.3 29.7
22:20 1020 30.12 849 25.07 17.1 62.8 28 -1.4 29.5
22:25 1020 30.12 849 25.07 17 62.6 27 -2.1 28.2
22:30 1020 30.12 849 25.07 17.7 63.8 26 -2.1 28.2
22:35 1020 30.12 849 25.07 17.7 63.9 26 -2 28.3
22:40 1020 30.12 849 25.07 17.6 63.6 26 -2.2 28
22:45 1020 30.12 849 25.07 17.6 63.6 28 -1.3 29.7
22:50 1020 30.12 849 25.07 17.2 62.9 28 -1.5 29.4
22:55 1020 30.12 849 25.07 17 62.5 28 -1.6 29.1
23:00 1020 30.12 849 25.07 17.1 62.7 27 -1.8 28.8
23:05 1020 30.12 849 25.07 17.2 63 27 -1.9 28.6
23:10 1020 30.12 849 25.07 17.1 62.8 28 -1.6 29.1
23:15 1020 30.12 849 25.07 17 62.6 27 -1.9 28.5
23:20 1020 30.12 850 25.1 17.3 63.2 26 -2.1 28.2
23:25 1020 30.12 850 25.1 17.7 63.9 26 -2.1 28.2
23:30 1020 30.12 850 25.1 17.8 64 27 -1.6 29.1
23:35 1020 30.12 850 25.1 17.2 62.9 27 -1.9 28.6
23:40 1021 30.15 850 25.1 16.8 62.3 29 -1.3 29.7
23:45 1021 30.15 850 25.1 16.6 61.9 27 -2.2 28
23:50 1021 30.15 850 25.1 17.1 62.7 27 -2 28.4
23:55 1021 30.15 850 25.1 16.7 62 34 1 33.8
24:00 1021 30.15 850 25.1 16.5 61.7 30 -1 30.1